sensor_id;sensor_type;location;lat;lon;timestamp;P1;durP1;ratioP1;P2;durP2;ratioP2
18905;SDS011;9585;51.018;4.282;2023-09-18T00:00:29;7.07;;;6.38;;
18905;SDS011;9585;51.018;4.282;2023-09-18T00:03:00;8.68;;;7.47;;
18905;SDS011;9585;51.018;4.282;2023-09-18T00:05:35;7.90;;;7.20;;
18905;SDS011;9585;51.018;4.282;2023-09-18T00:08:06;8.18;;;7.20;;
18905;SDS011;9585;51.018;4.282;2023-09-18T00:10:37;8.40;;;7.55;;
18905;SDS011;9585;51.018;4.282;2023-09-18T00:13:08;7.35;;;6.65;;
18905;SDS011;9585;51.018;4.282;2023-09-18T00:15:40;9.10;;;7.50;;
18905;SDS011;9585;51.018;4.282;2023-09-18T00:18:10;9.40;;;7.18;;
18905;SDS011;9585;51.018;4.282;2023-09-18T00:20:38;7.20;;;6.50;;
18905;SDS011;9585;51.018;4.282;2023-09-18T00:23:11;7.20;;;6.53;;
18905;SDS011;9585;51.018;4.282;2023-09-18T00:25:40;8.52;;;7.60;;
18905;SDS011;9585;51.018;4.282;2023-09-18T00:28:11;8.88;;;7.97;;
18905;SDS011;9585;51.018;4.282;2023-09-18T00:30:47;7.70;;;7.00;;
18905;SDS011;9585;51.018;4.282;2023-09-18T00:33:18;8.45;;;7.53;;
18905;SDS011;9585;51.018;4.282;2023-09-18T00:35:46;9.10;;;7.82;;
18905;SDS011;9585;51.018;4.282;2023-09-18T00:38:17;7.40;;;6.70;;
18905;SDS011;9585;51.018;4.282;2023-09-18T00:40:45;9.15;;;7.70;;
18905;SDS011;9585;51.018;4.282;2023-09-18T00:43:14;7.93;;;6.90;;
18905;SDS011;9585;51.018;4.282;2023-09-18T00:45:45;7.22;;;6.53;;
18905;SDS011;9585;51.018;4.282;2023-09-18T00:48:15;9.52;;;7.00;;
18905;SDS011;9585;51.018;4.282;2023-09-18T00:50:43;9.50;;;7.03;;
18905;SDS011;9585;51.018;4.282;2023-09-18T00:53:12;9.00;;;6.65;;
18905;SDS011;9585;51.018;4.282;2023-09-18T00:55:47;8.68;;;7.05;;
18905;SDS011;9585;51.018;4.282;2023-09-18T00:58:16;8.10;;;6.35;;
18905;SDS011;9585;51.018;4.282;2023-09-18T01:00:45;7.05;;;5.85;;
18905;SDS011;9585;51.018;4.282;2023-09-18T01:03:16;7.65;;;6.18;;
18905;SDS011;9585;51.018;4.282;2023-09-18T01:05:45;9.05;;;6.60;;
18905;SDS011;9585;51.018;4.282;2023-09-18T01:08:15;8.88;;;6.53;;
18905;SDS011;9585;51.018;4.282;2023-09-18T01:10:47;7.05;;;5.78;;
18905;SDS011;9585;51.018;4.282;2023-09-18T01:13:26;7.60;;;6.28;;
18905;SDS011;9585;51.018;4.282;2023-09-18T01:16:00;6.88;;;5.90;;
18905;SDS011;9585;51.018;4.282;2023-09-18T01:18:35;8.85;;;6.45;;
18905;SDS011;9585;51.018;4.282;2023-09-18T01:21:03;10.15;;;6.60;;
18905;SDS011;9585;51.018;4.282;2023-09-18T01:23:33;9.10;;;6.38;;
18905;SDS011;9585;51.018;4.282;2023-09-18T01:26:15;6.55;;;5.95;;
18905;SDS011;9585;51.018;4.282;2023-09-18T01:28:48;8.32;;;6.43;;
18905;SDS011;9585;51.018;4.282;2023-09-18T01:31:29;7.28;;;6.25;;
18905;SDS011;9585;51.018;4.282;2023-09-18T01:33:57;7.10;;;6.35;;
18905;SDS011;9585;51.018;4.282;2023-09-18T01:36:28;6.28;;;5.60;;
18905;SDS011;9585;51.018;4.282;2023-09-18T01:38:59;8.75;;;6.25;;
18905;SDS011;9585;51.018;4.282;2023-09-18T01:41:31;6.78;;;5.53;;
18905;SDS011;9585;51.018;4.282;2023-09-18T01:44:08;6.90;;;5.10;;
18905;SDS011;9585;51.018;4.282;2023-09-18T01:46:42;6.82;;;5.38;;
18905;SDS011;9585;51.018;4.282;2023-09-18T01:49:16;5.47;;;4.97;;
18905;SDS011;9585;51.018;4.282;2023-09-18T01:51:54;7.10;;;5.10;;
18905;SDS011;9585;51.018;4.282;2023-09-18T01:54:31;6.35;;;5.20;;
18905;SDS011;9585;51.018;4.282;2023-09-18T01:57:06;5.32;;;4.82;;
18905;SDS011;9585;51.018;4.282;2023-09-18T01:59:34;5.25;;;4.75;;
18905;SDS011;9585;51.018;4.282;2023-09-18T02:02:09;5.13;;;4.32;;
18905;SDS011;9585;51.018;4.282;2023-09-18T02:04:40;6.75;;;5.05;;
18905;SDS011;9585;51.018;4.282;2023-09-18T02:07:16;6.47;;;5.10;;
18905;SDS011;9585;51.018;4.282;2023-09-18T02:09:50;8.57;;;5.60;;
18905;SDS011;9585;51.018;4.282;2023-09-18T02:12:20;5.60;;;4.93;;
18905;SDS011;9585;51.018;4.282;2023-09-18T02:14:50;5.63;;;4.90;;
18905;SDS011;9585;51.018;4.282;2023-09-18T02:17:22;5.32;;;4.25;;
18905;SDS011;9585;51.018;4.282;2023-09-18T02:19:57;4.45;;;4.05;;
18905;SDS011;9585;51.018;4.282;2023-09-18T02:22:35;4.85;;;4.03;;
18905;SDS011;9585;51.018;4.282;2023-09-18T02:25:13;6.30;;;4.50;;
18905;SDS011;9585;51.018;4.282;2023-09-18T02:27:42;4.40;;;4.00;;
18905;SDS011;9585;51.018;4.282;2023-09-18T02:30:10;4.95;;;3.88;;
18905;SDS011;9585;51.018;4.282;2023-09-18T02:32:38;5.40;;;4.22;;
18905;SDS011;9585;51.018;4.282;2023-09-18T02:35:09;4.78;;;3.90;;
18905;SDS011;9585;51.018;4.282;2023-09-18T02:37:37;4.78;;;3.72;;
18905;SDS011;9585;51.018;4.282;2023-09-18T02:40:05;7.60;;;4.47;;
18905;SDS011;9585;51.018;4.282;2023-09-18T02:42:36;5.30;;;4.80;;
18905;SDS011;9585;51.018;4.282;2023-09-18T02:45:04;8.32;;;4.80;;
18905;SDS011;9585;51.018;4.282;2023-09-18T02:47:33;7.60;;;4.65;;
18905;SDS011;9585;51.018;4.282;2023-09-18T02:50:03;7.10;;;5.30;;
18905;SDS011;9585;51.018;4.282;2023-09-18T02:52:32;5.90;;;4.85;;
18905;SDS011;9585;51.018;4.282;2023-09-18T02:54:59;5.78;;;4.70;;
18905;SDS011;9585;51.018;4.282;2023-09-18T02:57:27;5.47;;;4.78;;
18905;SDS011;9585;51.018;4.282;2023-09-18T02:59:59;6.03;;;4.53;;
18905;SDS011;9585;51.018;4.282;2023-09-18T03:02:28;6.75;;;4.55;;
18905;SDS011;9585;51.018;4.282;2023-09-18T03:04:57;7.05;;;5.30;;
18905;SDS011;9585;51.018;4.282;2023-09-18T03:07:25;6.88;;;4.80;;
18905;SDS011;9585;51.018;4.282;2023-09-18T03:09:54;6.72;;;4.75;;
18905;SDS011;9585;51.018;4.282;2023-09-18T03:12:22;6.07;;;5.10;;
18905;SDS011;9585;51.018;4.282;2023-09-18T03:14:50;6.32;;;5.22;;
18905;SDS011;9585;51.018;4.282;2023-09-18T03:17:20;5.90;;;5.30;;
18905;SDS011;9585;51.018;4.282;2023-09-18T03:19:48;5.75;;;4.47;;
18905;SDS011;9585;51.018;4.282;2023-09-18T03:22:19;3.95;;;3.22;;
18905;SDS011;9585;51.018;4.282;2023-09-18T03:24:47;5.95;;;3.70;;
18905;SDS011;9585;51.018;4.282;2023-09-18T03:27:15;5.68;;;3.17;;
18905;SDS011;9585;51.018;4.282;2023-09-18T03:29:43;4.32;;;2.70;;
18905;SDS011;9585;51.018;4.282;2023-09-18T03:32:11;3.67;;;2.55;;
18905;SDS011;9585;51.018;4.282;2023-09-18T03:34:40;4.38;;;2.75;;
18905;SDS011;9585;51.018;4.282;2023-09-18T03:37:08;3.75;;;2.92;;
18905;SDS011;9585;51.018;4.282;2023-09-18T03:39:36;4.47;;;2.85;;
18905;SDS011;9585;51.018;4.282;2023-09-18T03:42:06;5.22;;;2.80;;
18905;SDS011;9585;51.018;4.282;2023-09-18T03:44:34;4.53;;;2.60;;
18905;SDS011;9585;51.018;4.282;2023-09-18T03:47:03;4.32;;;2.60;;
18905;SDS011;9585;51.018;4.282;2023-09-18T03:49:31;3.92;;;2.50;;
18905;SDS011;9585;51.018;4.282;2023-09-18T03:52:01;4.35;;;2.50;;
18905;SDS011;9585;51.018;4.282;2023-09-18T03:54:33;4.28;;;2.70;;
18905;SDS011;9585;51.018;4.282;2023-09-18T03:57:01;4.95;;;2.50;;
18905;SDS011;9585;51.018;4.282;2023-09-18T03:59:29;3.15;;;2.53;;
18905;SDS011;9585;51.018;4.282;2023-09-18T04:02:01;4.88;;;2.63;;
18905;SDS011;9585;51.018;4.282;2023-09-18T04:07:17;4.15;;;2.58;;
18905;SDS011;9585;51.018;4.282;2023-09-18T04:13:18;3.22;;;2.17;;
18905;SDS011;9585;51.018;4.282;2023-09-18T04:18:51;3.28;;;2.33;;
18905;SDS011;9585;51.018;4.282;2023-09-18T04:21:23;5.50;;;2.33;;
18905;SDS011;9585;51.018;4.282;2023-09-18T04:35:11;2.70;;;1.90;;
18905;SDS011;9585;51.018;4.282;2023-09-18T04:37:42;3.60;;;1.88;;
18905;SDS011;9585;51.018;4.282;2023-09-18T04:43:38;2.60;;;2.10;;
18905;SDS011;9585;51.018;4.282;2023-09-18T04:46:34;3.40;;;1.95;;
18905;SDS011;9585;51.018;4.282;2023-09-18T04:49:23;2.53;;;1.95;;
18905;SDS011;9585;51.018;4.282;2023-09-18T04:52:05;2.65;;;1.90;;
18905;SDS011;9585;51.018;4.282;2023-09-18T04:55:02;2.60;;;1.60;;
18905;SDS011;9585;51.018;4.282;2023-09-18T04:58:18;3.03;;;1.70;;
18905;SDS011;9585;51.018;4.282;2023-09-18T05:00:59;4.28;;;1.70;;
18905;SDS011;9585;51.018;4.282;2023-09-18T05:06:59;2.20;;;1.42;;
18905;SDS011;9585;51.018;4.282;2023-09-18T05:22:25;2.20;;;1.60;;
18905;SDS011;9585;51.018;4.282;2023-09-18T05:25:06;2.35;;;1.45;;
18905;SDS011;9585;51.018;4.282;2023-09-18T05:27:37;5.05;;;1.70;;
18905;SDS011;9585;51.018;4.282;2023-09-18T05:30:12;2.75;;;1.50;;
18905;SDS011;9585;51.018;4.282;2023-09-18T05:32:42;1.83;;;1.52;;
18905;SDS011;9585;51.018;4.282;2023-09-18T05:35:12;1.70;;;1.40;;
18905;SDS011;9585;51.018;4.282;2023-09-18T05:37:43;4.03;;;1.58;;
18905;SDS011;9585;51.018;4.282;2023-09-18T05:40:12;2.85;;;1.80;;
18905;SDS011;9585;51.018;4.282;2023-09-18T05:42:43;2.97;;;1.77;;
18905;SDS011;9585;51.018;4.282;2023-09-18T05:45:15;2.85;;;1.58;;
18905;SDS011;9585;51.018;4.282;2023-09-18T05:47:43;3.30;;;1.60;;
18905;SDS011;9585;51.018;4.282;2023-09-18T05:50:12;3.25;;;1.75;;
18905;SDS011;9585;51.018;4.282;2023-09-18T05:52:45;2.58;;;1.98;;
18905;SDS011;9585;51.018;4.282;2023-09-18T05:55:24;2.92;;;1.80;;
18905;SDS011;9585;51.018;4.282;2023-09-18T05:57:56;1.83;;;1.63;;
18905;SDS011;9585;51.018;4.282;2023-09-18T06:00:35;2.03;;;1.60;;
18905;SDS011;9585;51.018;4.282;2023-09-18T06:03:09;2.78;;;1.63;;
18905;SDS011;9585;51.018;4.282;2023-09-18T06:05:45;2.90;;;1.63;;
18905;SDS011;9585;51.018;4.282;2023-09-18T06:08:16;3.50;;;1.63;;
18905;SDS011;9585;51.018;4.282;2023-09-18T06:10:45;2.40;;;1.75;;
18905;SDS011;9585;51.018;4.282;2023-09-18T06:13:14;3.75;;;1.67;;
18905;SDS011;9585;51.018;4.282;2023-09-18T06:15:42;2.17;;;1.63;;
18905;SDS011;9585;51.018;4.282;2023-09-18T06:18:10;2.40;;;1.50;;
18905;SDS011;9585;51.018;4.282;2023-09-18T06:20:39;3.30;;;1.60;;
18905;SDS011;9585;51.018;4.282;2023-09-18T06:23:15;4.28;;;1.58;;
18905;SDS011;9585;51.018;4.282;2023-09-18T06:25:45;2.58;;;1.73;;
18905;SDS011;9585;51.018;4.282;2023-09-18T06:28:20;2.72;;;1.60;;
18905;SDS011;9585;51.018;4.282;2023-09-18T06:30:51;2.47;;;1.40;;
18905;SDS011;9585;51.018;4.282;2023-09-18T06:33:19;3.72;;;1.77;;
18905;SDS011;9585;51.018;4.282;2023-09-18T06:35:50;2.47;;;1.45;;
18905;SDS011;9585;51.018;4.282;2023-09-18T06:38:22;2.83;;;1.50;;
18905;SDS011;9585;51.018;4.282;2023-09-18T06:40:51;3.75;;;1.80;;
18905;SDS011;9585;51.018;4.282;2023-09-18T06:43:20;2.58;;;1.48;;
18905;SDS011;9585;51.018;4.282;2023-09-18T06:45:48;2.97;;;1.42;;
18905;SDS011;9585;51.018;4.282;2023-09-18T06:48:26;3.45;;;1.50;;
18905;SDS011;9585;51.018;4.282;2023-09-18T06:50:58;2.50;;;1.73;;
18905;SDS011;9585;51.018;4.282;2023-09-18T06:53:28;2.90;;;1.67;;
18905;SDS011;9585;51.018;4.282;2023-09-18T06:56:06;1.52;;;1.42;;
18905;SDS011;9585;51.018;4.282;2023-09-18T06:58:35;3.65;;;1.70;;
18905;SDS011;9585;51.018;4.282;2023-09-18T07:01:03;2.20;;;1.70;;
18905;SDS011;9585;51.018;4.282;2023-09-18T07:03:34;2.85;;;1.73;;
18905;SDS011;9585;51.018;4.282;2023-09-18T07:06:05;5.70;;;1.90;;
18905;SDS011;9585;51.018;4.282;2023-09-18T07:08:34;2.97;;;1.65;;
18905;SDS011;9585;51.018;4.282;2023-09-18T07:11:02;4.35;;;1.95;;
18905;SDS011;9585;51.018;4.282;2023-09-18T07:13:30;2.88;;;2.17;;
18905;SDS011;9585;51.018;4.282;2023-09-18T07:15:58;3.67;;;1.95;;
18905;SDS011;9585;51.018;4.282;2023-09-18T07:18:28;4.30;;;2.05;;
18905;SDS011;9585;51.018;4.282;2023-09-18T07:21:00;3.95;;;2.00;;
18905;SDS011;9585;51.018;4.282;2023-09-18T07:23:27;3.03;;;1.70;;
18905;SDS011;9585;51.018;4.282;2023-09-18T07:25:57;3.10;;;1.65;;
18905;SDS011;9585;51.018;4.282;2023-09-18T07:28:28;3.25;;;1.90;;
18905;SDS011;9585;51.018;4.282;2023-09-18T07:31:04;3.60;;;1.60;;
18905;SDS011;9585;51.018;4.282;2023-09-18T07:33:44;2.10;;;1.25;;
18905;SDS011;9585;51.018;4.282;2023-09-18T07:46:42;4.35;;;1.70;;
18905;SDS011;9585;51.018;4.282;2023-09-18T07:49:10;3.50;;;1.52;;
18905;SDS011;9585;51.018;4.282;2023-09-18T07:51:37;4.13;;;1.60;;
18905;SDS011;9585;51.018;4.282;2023-09-18T07:54:06;3.30;;;1.58;;
18905;SDS011;9585;51.018;4.282;2023-09-18T07:56:57;3.03;;;1.30;;
18905;SDS011;9585;51.018;4.282;2023-09-18T07:59:46;3.60;;;1.60;;
18905;SDS011;9585;51.018;4.282;2023-09-18T08:02:15;3.10;;;1.90;;
18905;SDS011;9585;51.018;4.282;2023-09-18T08:04:43;3.58;;;1.80;;
18905;SDS011;9585;51.018;4.282;2023-09-18T08:07:11;4.03;;;2.15;;
18905;SDS011;9585;51.018;4.282;2023-09-18T08:09:39;5.35;;;1.90;;
18905;SDS011;9585;51.018;4.282;2023-09-18T08:12:10;5.45;;;1.70;;
18905;SDS011;9585;51.018;4.282;2023-09-18T08:14:45;4.28;;;2.13;;
18905;SDS011;9585;51.018;4.282;2023-09-18T08:17:17;3.15;;;1.65;;
18905;SDS011;9585;51.018;4.282;2023-09-18T08:19:45;5.03;;;2.10;;
18905;SDS011;9585;51.018;4.282;2023-09-18T08:22:21;4.18;;;2.10;;
18905;SDS011;9585;51.018;4.282;2023-09-18T08:24:50;4.97;;;2.00;;
18905;SDS011;9585;51.018;4.282;2023-09-18T08:27:18;4.10;;;2.15;;
18905;SDS011;9585;51.018;4.282;2023-09-18T08:29:46;3.58;;;2.20;;
18905;SDS011;9585;51.018;4.282;2023-09-18T08:32:18;3.20;;;2.00;;
18905;SDS011;9585;51.018;4.282;2023-09-18T08:34:46;7.60;;;5.07;;
18905;SDS011;9585;51.018;4.282;2023-09-18T08:37:14;6.32;;;2.38;;
18905;SDS011;9585;51.018;4.282;2023-09-18T08:39:42;3.17;;;2.00;;
18905;SDS011;9585;51.018;4.282;2023-09-18T08:42:09;6.15;;;2.58;;
18905;SDS011;9585;51.018;4.282;2023-09-18T08:44:42;3.80;;;2.20;;
18905;SDS011;9585;51.018;4.282;2023-09-18T08:47:15;3.55;;;2.53;;
18905;SDS011;9585;51.018;4.282;2023-09-18T08:49:48;3.60;;;2.28;;
18905;SDS011;9585;51.018;4.282;2023-09-18T08:52:18;3.92;;;2.42;;
18905;SDS011;9585;51.018;4.282;2023-09-18T08:54:46;6.22;;;2.45;;
18905;SDS011;9585;51.018;4.282;2023-09-18T08:57:14;5.90;;;2.65;;
18905;SDS011;9585;51.018;4.282;2023-09-18T08:59:42;2.88;;;2.38;;
18905;SDS011;9585;51.018;4.282;2023-09-18T09:02:13;4.28;;;2.70;;
18905;SDS011;9585;51.018;4.282;2023-09-18T09:04:43;4.03;;;2.42;;
18905;SDS011;9585;51.018;4.282;2023-09-18T09:07:12;5.63;;;2.88;;
18905;SDS011;9585;51.018;4.282;2023-09-18T09:09:40;4.07;;;2.80;;
18905;SDS011;9585;51.018;4.282;2023-09-18T09:12:08;5.35;;;2.92;;
18905;SDS011;9585;51.018;4.282;2023-09-18T09:14:38;4.07;;;2.75;;
18905;SDS011;9585;51.018;4.282;2023-09-18T09:17:28;3.47;;;2.45;;
18905;SDS011;9585;51.018;4.282;2023-09-18T09:20:07;4.65;;;2.70;;
18905;SDS011;9585;51.018;4.282;2023-09-18T09:22:36;3.05;;;2.55;;
18905;SDS011;9585;51.018;4.282;2023-09-18T09:25:22;4.20;;;2.80;;
18905;SDS011;9585;51.018;4.282;2023-09-18T09:28:05;3.95;;;2.30;;
18905;SDS011;9585;51.018;4.282;2023-09-18T09:30:37;4.13;;;2.97;;
18905;SDS011;9585;51.018;4.282;2023-09-18T09:33:06;3.53;;;2.38;;
18905;SDS011;9585;51.018;4.282;2023-09-18T09:35:43;3.72;;;2.45;;
18905;SDS011;9585;51.018;4.282;2023-09-18T09:38:12;4.85;;;2.70;;
18905;SDS011;9585;51.018;4.282;2023-09-18T09:40:41;4.25;;;2.30;;
18905;SDS011;9585;51.018;4.282;2023-09-18T09:43:11;5.22;;;2.85;;
18905;SDS011;9585;51.018;4.282;2023-09-18T09:45:40;3.55;;;2.67;;
18905;SDS011;9585;51.018;4.282;2023-09-18T09:48:08;4.18;;;2.83;;
18905;SDS011;9585;51.018;4.282;2023-09-18T09:50:45;3.95;;;2.60;;
18905;SDS011;9585;51.018;4.282;2023-09-18T09:53:14;5.82;;;3.00;;
18905;SDS011;9585;51.018;4.282;2023-09-18T09:55:42;3.70;;;2.65;;
18905;SDS011;9585;51.018;4.282;2023-09-18T09:58:10;5.43;;;2.85;;
18905;SDS011;9585;51.018;4.282;2023-09-18T10:00:45;3.90;;;2.50;;
18905;SDS011;9585;51.018;4.282;2023-09-18T10:03:17;4.00;;;2.75;;
18905;SDS011;9585;51.018;4.282;2023-09-18T10:05:51;5.88;;;2.92;;
18905;SDS011;9585;51.018;4.282;2023-09-18T10:08:21;4.65;;;2.88;;
18905;SDS011;9585;51.018;4.282;2023-09-18T10:11:00;5.53;;;2.80;;
18905;SDS011;9585;51.018;4.282;2023-09-18T10:13:32;4.13;;;3.05;;
18905;SDS011;9585;51.018;4.282;2023-09-18T10:16:07;4.05;;;2.60;;
18905;SDS011;9585;51.018;4.282;2023-09-18T10:18:42;6.10;;;2.53;;
18905;SDS011;9585;51.018;4.282;2023-09-18T10:21:22;6.28;;;2.80;;
18905;SDS011;9585;51.018;4.282;2023-09-18T10:23:59;4.20;;;3.00;;
18905;SDS011;9585;51.018;4.282;2023-09-18T10:26:39;4.30;;;2.85;;
18905;SDS011;9585;51.018;4.282;2023-09-18T10:29:13;5.90;;;3.00;;
18905;SDS011;9585;51.018;4.282;2023-09-18T10:31:43;5.32;;;3.20;;
18905;SDS011;9585;51.018;4.282;2023-09-18T10:34:13;5.43;;;2.95;;
18905;SDS011;9585;51.018;4.282;2023-09-18T10:36:44;4.95;;;2.80;;
18905;SDS011;9585;51.018;4.282;2023-09-18T10:39:15;3.25;;;2.35;;
18905;SDS011;9585;51.018;4.282;2023-09-18T10:41:51;3.38;;;2.60;;
18905;SDS011;9585;51.018;4.282;2023-09-18T10:44:19;4.75;;;2.40;;
18905;SDS011;9585;51.018;4.282;2023-09-18T10:46:55;5.78;;;2.55;;
18905;SDS011;9585;51.018;4.282;2023-09-18T10:49:24;3.25;;;2.13;;
18905;SDS011;9585;51.018;4.282;2023-09-18T10:51:54;4.15;;;2.10;;
18905;SDS011;9585;51.018;4.282;2023-09-18T10:54:27;2.42;;;2.20;;
18905;SDS011;9585;51.018;4.282;2023-09-18T10:56:55;4.28;;;2.35;;
18905;SDS011;9585;51.018;4.282;2023-09-18T10:59:24;3.20;;;2.47;;
18905;SDS011;9585;51.018;4.282;2023-09-18T11:01:54;4.38;;;2.30;;
18905;SDS011;9585;51.018;4.282;2023-09-18T11:04:23;3.78;;;2.35;;
18905;SDS011;9585;51.018;4.282;2023-09-18T11:07:02;2.72;;;2.10;;
18905;SDS011;9585;51.018;4.282;2023-09-18T11:09:43;2.90;;;2.10;;
18905;SDS011;9585;51.018;4.282;2023-09-18T11:12:12;4.38;;;2.10;;
18905;SDS011;9585;51.018;4.282;2023-09-18T11:14:44;3.38;;;2.20;;
18905;SDS011;9585;51.018;4.282;2023-09-18T11:17:30;3.50;;;2.00;;
18905;SDS011;9585;51.018;4.282;2023-09-18T11:20:03;2.63;;;2.15;;
18905;SDS011;9585;51.018;4.282;2023-09-18T11:22:36;3.38;;;2.15;;
18905;SDS011;9585;51.018;4.282;2023-09-18T11:28:13;5.60;;;2.47;;
18905;SDS011;9585;51.018;4.282;2023-09-18T11:30:58;2.45;;;2.03;;
18905;SDS011;9585;51.018;4.282;2023-09-18T11:33:32;3.13;;;2.00;;
18905;SDS011;9585;51.018;4.282;2023-09-18T11:36:04;3.33;;;1.95;;
18905;SDS011;9585;51.018;4.282;2023-09-18T11:38:36;3.10;;;1.73;;
18905;SDS011;9585;51.018;4.282;2023-09-18T11:41:22;3.28;;;2.05;;
18905;SDS011;9585;51.018;4.282;2023-09-18T11:43:51;3.40;;;2.15;;
18905;SDS011;9585;51.018;4.282;2023-09-18T11:46:44;2.42;;;1.90;;
18905;SDS011;9585;51.018;4.282;2023-09-18T11:49:26;3.75;;;2.20;;
18905;SDS011;9585;51.018;4.282;2023-09-18T11:51:58;4.82;;;2.28;;
18905;SDS011;9585;51.018;4.282;2023-09-18T11:54:41;4.43;;;2.38;;
18905;SDS011;9585;51.018;4.282;2023-09-18T11:57:09;3.78;;;2.33;;
18905;SDS011;9585;51.018;4.282;2023-09-18T11:59:41;4.47;;;2.28;;
18905;SDS011;9585;51.018;4.282;2023-09-18T12:02:26;4.13;;;2.03;;
18905;SDS011;9585;51.018;4.282;2023-09-18T13:23:20;3.00;;;1.80;;
18905;SDS011;9585;51.018;4.282;2023-09-18T13:26:00;3.10;;;1.50;;
18905;SDS011;9585;51.018;4.282;2023-09-18T13:28:39;4.05;;;1.38;;
18905;SDS011;9585;51.018;4.282;2023-09-18T13:31:12;4.15;;;1.40;;
18905;SDS011;9585;51.018;4.282;2023-09-18T13:33:45;1.85;;;1.35;;
18905;SDS011;9585;51.018;4.282;2023-09-18T13:36:21;2.90;;;1.67;;
18905;SDS011;9585;51.018;4.282;2023-09-18T13:38:54;2.42;;;1.40;;
18905;SDS011;9585;51.018;4.282;2023-09-18T13:41:40;3.15;;;1.60;;
18905;SDS011;9585;51.018;4.282;2023-09-18T13:44:29;3.45;;;1.40;;
18905;SDS011;9585;51.018;4.282;2023-09-18T13:49:42;3.13;;;1.50;;
18905;SDS011;9585;51.018;4.282;2023-09-18T14:45:32;2.80;;;1.85;;
18905;SDS011;9585;51.018;4.282;2023-09-18T14:48:41;3.97;;;1.88;;
18905;SDS011;9585;51.018;4.282;2023-09-18T14:51:45;3.65;;;2.03;;
18905;SDS011;9585;51.018;4.282;2023-09-18T14:55:07;4.32;;;1.85;;
18905;SDS011;9585;51.018;4.282;2023-09-18T15:18:45;3.20;;;1.70;;
18905;SDS011;9585;51.018;4.282;2023-09-18T15:21:24;3.28;;;1.50;;
18905;SDS011;9585;51.018;4.282;2023-09-18T15:24:07;3.67;;;1.55;;
18905;SDS011;9585;51.018;4.282;2023-09-18T15:27:00;3.47;;;1.80;;
18905;SDS011;9585;51.018;4.282;2023-09-18T15:29:47;3.95;;;1.73;;
18905;SDS011;9585;51.018;4.282;2023-09-18T15:32:19;3.05;;;1.50;;
18905;SDS011;9585;51.018;4.282;2023-09-18T15:34:48;2.95;;;1.38;;
18905;SDS011;9585;51.018;4.282;2023-09-18T15:37:50;44.03;;;23.60;;
18905;SDS011;9585;51.018;4.282;2023-09-18T15:40:20;17.10;;;13.27;;
18905;SDS011;9585;51.018;4.282;2023-09-18T15:43:12;5.35;;;3.00;;
18905;SDS011;9585;51.018;4.282;2023-09-18T15:45:55;4.20;;;1.52;;
18905;SDS011;9585;51.018;4.282;2023-09-18T15:48:27;2.60;;;1.60;;
18905;SDS011;9585;51.018;4.282;2023-09-18T15:50:55;2.30;;;1.70;;
18905;SDS011;9585;51.018;4.282;2023-09-18T15:53:23;2.47;;;1.70;;
18905;SDS011;9585;51.018;4.282;2023-09-18T15:55:53;3.33;;;1.63;;
18905;SDS011;9585;51.018;4.282;2023-09-18T15:58:21;2.83;;;1.70;;
18905;SDS011;9585;51.018;4.282;2023-09-18T16:00:49;4.85;;;1.63;;
18905;SDS011;9585;51.018;4.282;2023-09-18T16:03:17;3.35;;;2.05;;
18905;SDS011;9585;51.018;4.282;2023-09-18T16:05:51;4.55;;;1.50;;
18905;SDS011;9585;51.018;4.282;2023-09-18T16:08:22;2.58;;;1.77;;
18905;SDS011;9585;51.018;4.282;2023-09-18T16:10:50;4.55;;;1.85;;
18905;SDS011;9585;51.018;4.282;2023-09-18T16:13:17;2.55;;;1.48;;
18905;SDS011;9585;51.018;4.282;2023-09-18T16:15:45;6.10;;;2.17;;
18905;SDS011;9585;51.018;4.282;2023-09-18T16:18:15;3.78;;;2.33;;
18905;SDS011;9585;51.018;4.282;2023-09-18T16:20:43;1.77;;;1.38;;
18905;SDS011;9585;51.018;4.282;2023-09-18T16:23:14;2.75;;;1.50;;
18905;SDS011;9585;51.018;4.282;2023-09-18T16:25:42;1.75;;;1.40;;
18905;SDS011;9585;51.018;4.282;2023-09-18T16:28:24;2.15;;;1.38;;
18905;SDS011;9585;51.018;4.282;2023-09-18T16:30:59;3.28;;;1.58;;
18905;SDS011;9585;51.018;4.282;2023-09-18T16:33:34;2.55;;;1.30;;
18905;SDS011;9585;51.018;4.282;2023-09-18T16:36:03;2.20;;;1.40;;
18905;SDS011;9585;51.018;4.282;2023-09-18T16:38:37;3.00;;;1.50;;
18905;SDS011;9585;51.018;4.282;2023-09-18T16:41:09;4.65;;;1.48;;
18905;SDS011;9585;51.018;4.282;2023-09-18T16:43:37;2.58;;;1.50;;
18905;SDS011;9585;51.018;4.282;2023-09-18T16:46:05;3.40;;;2.20;;
18905;SDS011;9585;51.018;4.282;2023-09-18T16:48:32;3.10;;;1.60;;
18905;SDS011;9585;51.018;4.282;2023-09-18T16:51:03;2.47;;;1.35;;
18905;SDS011;9585;51.018;4.282;2023-09-18T16:53:36;2.45;;;1.45;;
18905;SDS011;9585;51.018;4.282;2023-09-18T16:56:04;3.38;;;1.27;;
18905;SDS011;9585;51.018;4.282;2023-09-18T16:58:42;2.33;;;1.20;;
18905;SDS011;9585;51.018;4.282;2023-09-18T17:01:14;2.85;;;1.42;;
18905;SDS011;9585;51.018;4.282;2023-09-18T17:03:47;2.28;;;1.40;;
18905;SDS011;9585;51.018;4.282;2023-09-18T17:06:15;2.53;;;1.40;;
18905;SDS011;9585;51.018;4.282;2023-09-18T17:08:48;2.67;;;1.30;;
18905;SDS011;9585;51.018;4.282;2023-09-18T17:11:19;3.70;;;1.65;;
18905;SDS011;9585;51.018;4.282;2023-09-18T17:13:50;1.50;;;1.40;;
18905;SDS011;9585;51.018;4.282;2023-09-18T17:16:18;2.00;;;1.10;;
18905;SDS011;9585;51.018;4.282;2023-09-18T17:18:46;2.42;;;1.25;;
18905;SDS011;9585;51.018;4.282;2023-09-18T17:21:16;2.50;;;1.15;;
18905;SDS011;9585;51.018;4.282;2023-09-18T17:23:47;2.80;;;1.23;;
18905;SDS011;9585;51.018;4.282;2023-09-18T17:26:19;3.50;;;1.70;;
18905;SDS011;9585;51.018;4.282;2023-09-18T17:28:49;2.30;;;1.38;;
18905;SDS011;9585;51.018;4.282;2023-09-18T17:31:20;4.55;;;1.60;;
18905;SDS011;9585;51.018;4.282;2023-09-18T17:33:53;3.22;;;1.42;;
18905;SDS011;9585;51.018;4.282;2023-09-18T17:36:24;4.95;;;1.67;;
18905;SDS011;9585;51.018;4.282;2023-09-18T17:38:56;3.28;;;1.48;;
18905;SDS011;9585;51.018;4.282;2023-09-18T17:41:24;3.17;;;1.40;;
18905;SDS011;9585;51.018;4.282;2023-09-18T17:43:55;3.28;;;1.38;;
18905;SDS011;9585;51.018;4.282;2023-09-18T17:46:23;2.67;;;1.35;;
18905;SDS011;9585;51.018;4.282;2023-09-18T17:48:51;4.00;;;1.25;;
18905;SDS011;9585;51.018;4.282;2023-09-18T17:51:19;2.38;;;1.30;;
18905;SDS011;9585;51.018;4.282;2023-09-18T17:53:50;6.35;;;1.17;;
18905;SDS011;9585;51.018;4.282;2023-09-18T17:56:22;4.18;;;1.40;;
18905;SDS011;9585;51.018;4.282;2023-09-18T17:59:02;3.78;;;1.20;;
18905;SDS011;9585;51.018;4.282;2023-09-18T18:01:37;3.33;;;1.52;;
18905;SDS011;9585;51.018;4.282;2023-09-18T18:04:05;2.97;;;1.30;;
18905;SDS011;9585;51.018;4.282;2023-09-18T18:06:33;4.10;;;1.40;;
18905;SDS011;9585;51.018;4.282;2023-09-18T18:09:04;3.63;;;1.20;;
18905;SDS011;9585;51.018;4.282;2023-09-18T18:11:34;4.20;;;1.45;;
18905;SDS011;9585;51.018;4.282;2023-09-18T18:14:09;4.38;;;1.23;;
18905;SDS011;9585;51.018;4.282;2023-09-18T18:16:41;6.95;;;1.63;;
18905;SDS011;9585;51.018;4.282;2023-09-18T18:19:11;4.68;;;1.67;;
18905;SDS011;9585;51.018;4.282;2023-09-18T18:21:42;3.30;;;1.30;;
18905;SDS011;9585;51.018;4.282;2023-09-18T18:24:10;4.22;;;1.60;;
18905;SDS011;9585;51.018;4.282;2023-09-18T18:26:43;4.18;;;1.50;;
18905;SDS011;9585;51.018;4.282;2023-09-18T18:29:19;4.50;;;1.35;;
18905;SDS011;9585;51.018;4.282;2023-09-18T18:31:50;3.40;;;1.25;;
18905;SDS011;9585;51.018;4.282;2023-09-18T18:34:20;4.13;;;1.58;;
18905;SDS011;9585;51.018;4.282;2023-09-18T18:36:50;5.03;;;1.38;;
18905;SDS011;9585;51.018;4.282;2023-09-18T18:39:20;4.43;;;1.50;;
18905;SDS011;9585;51.018;4.282;2023-09-18T18:41:52;5.00;;;1.60;;
18905;SDS011;9585;51.018;4.282;2023-09-18T18:44:22;4.25;;;1.38;;
18905;SDS011;9585;51.018;4.282;2023-09-18T18:46:54;4.75;;;1.52;;
18905;SDS011;9585;51.018;4.282;2023-09-18T18:49:26;4.65;;;1.40;;
18905;SDS011;9585;51.018;4.282;2023-09-18T18:51:56;4.10;;;1.38;;
18905;SDS011;9585;51.018;4.282;2023-09-18T18:54:25;7.15;;;1.55;;
18905;SDS011;9585;51.018;4.282;2023-09-18T18:56:59;5.55;;;1.55;;
18905;SDS011;9585;51.018;4.282;2023-09-18T18:59:28;5.35;;;1.52;;
18905;SDS011;9585;51.018;4.282;2023-09-18T19:02:02;5.90;;;1.65;;